sensor_id;sensor_type;location;lat;lon;timestamp;temperature;humidity
40964;DHT22;26693;51.168;4.138;2022-10-28T00:00:45;19.00;99.90
40964;DHT22;26693;51.168;4.138;2022-10-28T00:01:45;19.00;99.90
40964;DHT22;26693;51.168;4.138;2022-10-28T00:02:46;19.00;99.90
40964;DHT22;26693;51.168;4.138;2022-10-28T00:03:52;19.00;99.90
40964;DHT22;26693;51.168;4.138;2022-10-28T00:04:52;19.00;99.90
40964;DHT22;26693;51.168;4.138;2022-10-28T00:05:53;19.00;99.90
40964;DHT22;26693;51.168;4.138;2022-10-28T00:06:53;19.00;99.90
40964;DHT22;26693;51.168;4.138;2022-10-28T00:07:54;19.00;99.90
40964;DHT22;26693;51.168;4.138;2022-10-28T00:08:55;19.00;99.90
40964;DHT22;26693;51.168;4.138;2022-10-28T00:09:56;19.00;99.90
40964;DHT22;26693;51.168;4.138;2022-10-28T00:12:10;19.00;99.90
40964;DHT22;26693;51.168;4.138;2022-10-28T00:13:11;19.00;99.90
40964;DHT22;26693;51.168;4.138;2022-10-28T00:14:11;19.10;99.90
40964;DHT22;26693;51.168;4.138;2022-10-28T00:15:12;19.10;99.90
40964;DHT22;26693;51.168;4.138;2022-10-28T00:16:16;19.00;99.90
40964;DHT22;26693;51.168;4.138;2022-10-28T00:17:17;19.00;99.90
40964;DHT22;26693;51.168;4.138;2022-10-28T00:18:18;19.00;99.90
40964;DHT22;26693;51.168;4.138;2022-10-28T00:19:18;19.00;99.90
40964;DHT22;26693;51.168;4.138;2022-10-28T00:20:19;19.00;99.90
40964;DHT22;26693;51.168;4.138;2022-10-28T00:21:26;19.00;99.90
40964;DHT22;26693;51.168;4.138;2022-10-28T00:22:27;19.00;99.90
40964;DHT22;26693;51.168;4.138;2022-10-28T00:23:27;19.00;99.90
40964;DHT22;26693;51.168;4.138;2022-10-28T00:24:28;19.00;99.90
40964;DHT22;26693;51.168;4.138;2022-10-28T00:25:28;19.00;99.90
40964;DHT22;26693;51.168;4.138;2022-10-28T00:26:30;19.00;99.90
40964;DHT22;26693;51.168;4.138;2022-10-28T00:27:31;19.00;99.90
40964;DHT22;26693;51.168;4.138;2022-10-28T00:28:32;19.00;99.90
40964;DHT22;26693;51.168;4.138;2022-10-28T00:29:33;19.00;99.90
40964;DHT22;26693;51.168;4.138;2022-10-28T00:30:33;19.00;99.90
40964;DHT22;26693;51.168;4.138;2022-10-28T00:31:34;19.00;99.90
40964;DHT22;26693;51.168;4.138;2022-10-28T00:32:35;18.90;99.90
40964;DHT22;26693;51.168;4.138;2022-10-28T00:33:36;19.00;99.90
40964;DHT22;26693;51.168;4.138;2022-10-28T00:34:36;19.00;99.90
40964;DHT22;26693;51.168;4.138;2022-10-28T00:35:37;19.00;99.90
40964;DHT22;26693;51.168;4.138;2022-10-28T00:36:40;19.00;99.90
40964;DHT22;26693;51.168;4.138;2022-10-28T00:37:41;19.10;99.90
40964;DHT22;26693;51.168;4.138;2022-10-28T00:38:43;19.10;99.90
40964;DHT22;26693;51.168;4.138;2022-10-28T00:39:44;19.10;99.90
40964;DHT22;26693;51.168;4.138;2022-10-28T00:40:44;19.10;99.90
40964;DHT22;26693;51.168;4.138;2022-10-28T00:41:48;19.10;99.90
40964;DHT22;26693;51.168;4.138;2022-10-28T00:42:49;19.10;99.90
40964;DHT22;26693;51.168;4.138;2022-10-28T00:43:52;19.10;99.90
40964;DHT22;26693;51.168;4.138;2022-10-28T00:45:00;19.10;99.90
40964;DHT22;26693;51.168;4.138;2022-10-28T00:46:02;19.10;99.90
40964;DHT22;26693;51.168;4.138;2022-10-28T00:47:09;19.10;99.90
40964;DHT22;26693;51.168;4.138;2022-10-28T00:48:11;19.00;99.90
40964;DHT22;26693;51.168;4.138;2022-10-28T00:49:15;19.00;99.90
40964;DHT22;26693;51.168;4.138;2022-10-28T00:51:40;19.00;99.90
40964;DHT22;26693;51.168;4.138;2022-10-28T00:52:42;19.10;99.90
40964;DHT22;26693;51.168;4.138;2022-10-28T00:53:45;19.00;99.90
40964;DHT22;26693;51.168;4.138;2022-10-28T00:54:48;19.10;99.90
40964;DHT22;26693;51.168;4.138;2022-10-28T00:55:50;19.00;99.90
40964;DHT22;26693;51.168;4.138;2022-10-28T00:56:54;19.10;99.90
40964;DHT22;26693;51.168;4.138;2022-10-28T00:57:56;19.10;99.90
40964;DHT22;26693;51.168;4.138;2022-10-28T00:58:59;19.00;99.90
40964;DHT22;26693;51.168;4.138;2022-10-28T01:00:04;18.90;99.90
40964;DHT22;26693;51.168;4.138;2022-10-28T01:01:05;18.90;99.90
40964;DHT22;26693;51.168;4.138;2022-10-28T01:02:06;18.90;99.90
40964;DHT22;26693;51.168;4.138;2022-10-28T01:03:07;18.80;99.90
40964;DHT22;26693;51.168;4.138;2022-10-28T01:04:09;18.80;99.90
40964;DHT22;26693;51.168;4.138;2022-10-28T01:05:13;18.80;99.90
40964;DHT22;26693;51.168;4.138;2022-10-28T01:06:14;18.80;99.90
40964;DHT22;26693;51.168;4.138;2022-10-28T01:07:16;18.80;99.90
40964;DHT22;26693;51.168;4.138;2022-10-28T01:08:17;18.90;99.90
40964;DHT22;26693;51.168;4.138;2022-10-28T01:09:17;18.90;99.90
40964;DHT22;26693;51.168;4.138;2022-10-28T01:10:19;19.00;99.90
40964;DHT22;26693;51.168;4.138;2022-10-28T01:12:37;19.00;99.90
40964;DHT22;26693;51.168;4.138;2022-10-28T01:13:57;18.90;99.90
40964;DHT22;26693;51.168;4.138;2022-10-28T01:15:36;18.90;99.90
40964;DHT22;26693;51.168;4.138;2022-10-28T01:16:53;18.80;99.90
40964;DHT22;26693;51.168;4.138;2022-10-28T01:18:25;18.90;99.90
40964;DHT22;26693;51.168;4.138;2022-10-28T01:20:02;18.90;99.90
40964;DHT22;26693;51.168;4.138;2022-10-28T01:25:07;19.00;99.90
40964;DHT22;26693;51.168;4.138;2022-10-28T01:26:43;19.00;99.90
40964;DHT22;26693;51.168;4.138;2022-10-28T01:31:16;18.90;99.90
40964;DHT22;26693;51.168;4.138;2022-10-28T01:32:30;18.80;99.90
40964;DHT22;26693;51.168;4.138;2022-10-28T01:35:16;18.80;99.90
40964;DHT22;26693;51.168;4.138;2022-10-28T01:37:52;18.80;99.90
40964;DHT22;26693;51.168;4.138;2022-10-28T01:40:19;18.90;99.90
40964;DHT22;26693;51.168;4.138;2022-10-28T01:41:38;18.80;99.90
40964;DHT22;26693;51.168;4.138;2022-10-28T01:45:17;18.80;99.90
40964;DHT22;26693;51.168;4.138;2022-10-28T01:46:33;18.90;99.90
40964;DHT22;26693;51.168;4.138;2022-10-28T01:48:01;18.80;99.90
40964;DHT22;26693;51.168;4.138;2022-10-28T01:50:20;18.80;99.90
40964;DHT22;26693;51.168;4.138;2022-10-28T01:51:27;18.70;99.90
40964;DHT22;26693;51.168;4.138;2022-10-28T01:52:31;18.80;99.90
40964;DHT22;26693;51.168;4.138;2022-10-28T01:53:34;18.70;99.90
40964;DHT22;26693;51.168;4.138;2022-10-28T01:54:39;18.80;99.90
40964;DHT22;26693;51.168;4.138;2022-10-28T01:55:44;18.80;99.90
40964;DHT22;26693;51.168;4.138;2022-10-28T01:56:46;18.80;99.90
40964;DHT22;26693;51.168;4.138;2022-10-28T01:57:49;18.80;99.90
40964;DHT22;26693;51.168;4.138;2022-10-28T01:58:52;18.70;99.90
40964;DHT22;26693;51.168;4.138;2022-10-28T01:59:55;18.70;99.90
40964;DHT22;26693;51.168;4.138;2022-10-28T02:00:58;18.70;99.90
40964;DHT22;26693;51.168;4.138;2022-10-28T02:02:00;18.80;99.90
40964;DHT22;26693;51.168;4.138;2022-10-28T02:03:00;18.80;99.90
40964;DHT22;26693;51.168;4.138;2022-10-28T02:04:01;18.80;99.90
40964;DHT22;26693;51.168;4.138;2022-10-28T02:06:36;18.80;99.90
40964;DHT22;26693;51.168;4.138;2022-10-28T02:07:38;18.80;99.90
40964;DHT22;26693;51.168;4.138;2022-10-28T02:09:01;18.80;99.90
40964;DHT22;26693;51.168;4.138;2022-10-28T02:10:07;18.80;99.90
40964;DHT22;26693;51.168;4.138;2022-10-28T02:11:28;18.80;99.90
40964;DHT22;26693;51.168;4.138;2022-10-28T02:12:33;18.80;99.90
40964;DHT22;26693;51.168;4.138;2022-10-28T02:15:10;18.80;99.90
40964;DHT22;26693;51.168;4.138;2022-10-28T02:20:15;18.70;99.90
40964;DHT22;26693;51.168;4.138;2022-10-28T02:21:25;18.70;99.90
40964;DHT22;26693;51.168;4.138;2022-10-28T02:23:44;18.80;99.90
40964;DHT22;26693;51.168;4.138;2022-10-28T02:24:53;18.80;99.90
40964;DHT22;26693;51.168;4.138;2022-10-28T02:25:59;18.80;99.90
40964;DHT22;26693;51.168;4.138;2022-10-28T02:27:09;18.70;99.90
40964;DHT22;26693;51.168;4.138;2022-10-28T02:28:16;18.80;99.90
40964;DHT22;26693;51.168;4.138;2022-10-28T02:29:36;18.80;99.90
40964;DHT22;26693;51.168;4.138;2022-10-28T02:31:54;18.80;99.90
40964;DHT22;26693;51.168;4.138;2022-10-28T02:32:59;18.80;99.90
40964;DHT22;26693;51.168;4.138;2022-10-28T02:34:04;18.80;99.90
40964;DHT22;26693;51.168;4.138;2022-10-28T02:35:16;18.80;99.90
40964;DHT22;26693;51.168;4.138;2022-10-28T02:36:19;18.80;99.90
40964;DHT22;26693;51.168;4.138;2022-10-28T02:37:27;18.90;99.90
40964;DHT22;26693;51.168;4.138;2022-10-28T02:38:35;18.90;99.90
40964;DHT22;26693;51.168;4.138;2022-10-28T02:39:41;18.90;99.90
40964;DHT22;26693;51.168;4.138;2022-10-28T02:40:48;18.80;99.90
40964;DHT22;26693;51.168;4.138;2022-10-28T02:41:53;18.70;99.90
40964;DHT22;26693;51.168;4.138;2022-10-28T02:42:57;18.80;99.90
40964;DHT22;26693;51.168;4.138;2022-10-28T02:44:04;18.80;99.90
40964;DHT22;26693;51.168;4.138;2022-10-28T02:45:15;18.90;99.90
40964;DHT22;26693;51.168;4.138;2022-10-28T02:46:18;18.80;99.90
40964;DHT22;26693;51.168;4.138;2022-10-28T02:47:23;18.90;99.90
40964;DHT22;26693;51.168;4.138;2022-10-28T02:48:43;18.80;99.90
40964;DHT22;26693;51.168;4.138;2022-10-28T02:49:49;18.80;99.90
40964;DHT22;26693;51.168;4.138;2022-10-28T02:50:59;18.80;99.90
40964;DHT22;26693;51.168;4.138;2022-10-28T02:52:04;18.80;99.90
40964;DHT22;26693;51.168;4.138;2022-10-28T02:53:12;18.80;99.90
40964;DHT22;26693;51.168;4.138;2022-10-28T02:54:17;18.70;99.90
40964;DHT22;26693;51.168;4.138;2022-10-28T02:55:19;18.70;99.90
40964;DHT22;26693;51.168;4.138;2022-10-28T02:56:23;18.70;99.90
40964;DHT22;26693;51.168;4.138;2022-10-28T02:57:26;18.60;99.90
40964;DHT22;26693;51.168;4.138;2022-10-28T02:58:28;18.60;99.90
40964;DHT22;26693;51.168;4.138;2022-10-28T02:59:36;18.60;99.90
40964;DHT22;26693;51.168;4.138;2022-10-28T03:00:37;18.50;99.90
40964;DHT22;26693;51.168;4.138;2022-10-28T03:01:38;18.60;99.90
40964;DHT22;26693;51.168;4.138;2022-10-28T03:02:38;18.50;99.90
40964;DHT22;26693;51.168;4.138;2022-10-28T03:03:40;18.50;99.90
40964;DHT22;26693;51.168;4.138;2022-10-28T03:04:41;18.50;99.90
40964;DHT22;26693;51.168;4.138;2022-10-28T03:05:41;18.50;99.90
40964;DHT22;26693;51.168;4.138;2022-10-28T03:06:42;18.60;99.90
40964;DHT22;26693;51.168;4.138;2022-10-28T03:07:42;18.60;99.90
40964;DHT22;26693;51.168;4.138;2022-10-28T03:08:43;18.60;99.90
40964;DHT22;26693;51.168;4.138;2022-10-28T03:09:43;18.60;99.90
40964;DHT22;26693;51.168;4.138;2022-10-28T03:10:44;18.50;99.90
40964;DHT22;26693;51.168;4.138;2022-10-28T03:11:45;18.50;99.90
40964;DHT22;26693;51.168;4.138;2022-10-28T03:12:45;18.50;99.90
40964;DHT22;26693;51.168;4.138;2022-10-28T03:13:46;18.40;99.90
40964;DHT22;26693;51.168;4.138;2022-10-28T03:14:46;18.40;99.90
40964;DHT22;26693;51.168;4.138;2022-10-28T03:15:47;18.40;99.90
40964;DHT22;26693;51.168;4.138;2022-10-28T03:16:47;18.30;99.90
40964;DHT22;26693;51.168;4.138;2022-10-28T03:17:48;18.30;99.90
40964;DHT22;26693;51.168;4.138;2022-10-28T03:18:48;18.30;99.90
40964;DHT22;26693;51.168;4.138;2022-10-28T03:19:49;18.30;99.90
40964;DHT22;26693;51.168;4.138;2022-10-28T03:20:49;18.30;99.90
40964;DHT22;26693;51.168;4.138;2022-10-28T03:21:50;18.30;99.90
40964;DHT22;26693;51.168;4.138;2022-10-28T03:22:50;18.20;99.90
40964;DHT22;26693;51.168;4.138;2022-10-28T03:23:51;18.20;99.90
40964;DHT22;26693;51.168;4.138;2022-10-28T03:24:51;18.20;99.90
40964;DHT22;26693;51.168;4.138;2022-10-28T03:25:52;18.10;99.90
40964;DHT22;26693;51.168;4.138;2022-10-28T03:26:52;18.20;99.90
40964;DHT22;26693;51.168;4.138;2022-10-28T03:27:53;18.10;99.90
40964;DHT22;26693;51.168;4.138;2022-10-28T03:28:53;18.10;99.90
40964;DHT22;26693;51.168;4.138;2022-10-28T03:29:54;18.20;99.90
40964;DHT22;26693;51.168;4.138;2022-10-28T03:30:54;18.10;99.90
40964;DHT22;26693;51.168;4.138;2022-10-28T03:31:55;18.10;99.90
40964;DHT22;26693;51.168;4.138;2022-10-28T03:32:55;18.10;99.90
40964;DHT22;26693;51.168;4.138;2022-10-28T03:33:56;18.20;99.90
40964;DHT22;26693;51.168;4.138;2022-10-28T03:34:57;18.20;99.90
40964;DHT22;26693;51.168;4.138;2022-10-28T03:35:57;18.10;99.90
40964;DHT22;26693;51.168;4.138;2022-10-28T03:36:58;18.10;99.90
40964;DHT22;26693;51.168;4.138;2022-10-28T03:37:58;18.10;99.90
40964;DHT22;26693;51.168;4.138;2022-10-28T03:38:59;18.00;99.90
40964;DHT22;26693;51.168;4.138;2022-10-28T03:39:59;18.10;99.90
40964;DHT22;26693;51.168;4.138;2022-10-28T03:41:01;18.10;99.90
40964;DHT22;26693;51.168;4.138;2022-10-28T03:42:02;18.00;99.90
40964;DHT22;26693;51.168;4.138;2022-10-28T03:43:03;18.10;99.90
40964;DHT22;26693;51.168;4.138;2022-10-28T03:44:03;18.10;99.90
40964;DHT22;26693;51.168;4.138;2022-10-28T03:45:04;18.10;99.90
40964;DHT22;26693;51.168;4.138;2022-10-28T03:46:05;18.10;99.90
40964;DHT22;26693;51.168;4.138;2022-10-28T03:47:05;18.10;99.90
40964;DHT22;26693;51.168;4.138;2022-10-28T03:48:06;18.10;99.90
40964;DHT22;26693;51.168;4.138;2022-10-28T03:49:06;18.10;99.90
40964;DHT22;26693;51.168;4.138;2022-10-28T03:50:07;18.10;99.90
40964;DHT22;26693;51.168;4.138;2022-10-28T03:51:08;18.10;99.90
40964;DHT22;26693;51.168;4.138;2022-10-28T03:52:09;18.10;99.90
40964;DHT22;26693;51.168;4.138;2022-10-28T03:53:09;18.10;99.90
40964;DHT22;26693;51.168;4.138;2022-10-28T03:54:10;18.10;99.90
40964;DHT22;26693;51.168;4.138;2022-10-28T03:55:10;18.20;99.90
40964;DHT22;26693;51.168;4.138;2022-10-28T03:56:11;18.20;99.90
40964;DHT22;26693;51.168;4.138;2022-10-28T03:57:11;18.20;99.90
40964;DHT22;26693;51.168;4.138;2022-10-28T03:58:12;18.20;99.90
40964;DHT22;26693;51.168;4.138;2022-10-28T03:59:12;18.20;99.90
40964;DHT22;26693;51.168;4.138;2022-10-28T04:00:14;18.20;99.90
40964;DHT22;26693;51.168;4.138;2022-10-28T04:01:15;18.10;99.90
40964;DHT22;26693;51.168;4.138;2022-10-28T04:02:16;18.20;99.90
40964;DHT22;26693;51.168;4.138;2022-10-28T04:03:18;18.10;99.90
40964;DHT22;26693;51.168;4.138;2022-10-28T04:04:19;18.20;99.90
40964;DHT22;26693;51.168;4.138;2022-10-28T04:05:20;18.10;99.90
40964;DHT22;26693;51.168;4.138;2022-10-28T04:06:20;18.10;99.90
40964;DHT22;26693;51.168;4.138;2022-10-28T04:07:21;18.10;99.90
40964;DHT22;26693;51.168;4.138;2022-10-28T04:08:23;18.10;99.90
40964;DHT22;26693;51.168;4.138;2022-10-28T04:09:23;18.10;99.90
40964;DHT22;26693;51.168;4.138;2022-10-28T04:10:24;18.10;99.90
40964;DHT22;26693;51.168;4.138;2022-10-28T04:11:24;18.10;99.90
40964;DHT22;26693;51.168;4.138;2022-10-28T04:12:25;18.10;99.90
40964;DHT22;26693;51.168;4.138;2022-10-28T04:13:25;18.10;99.90
40964;DHT22;26693;51.168;4.138;2022-10-28T04:14:26;18.10;99.90
40964;DHT22;26693;51.168;4.138;2022-10-28T04:15:26;18.00;99.90
40964;DHT22;26693;51.168;4.138;2022-10-28T04:16:27;18.00;99.90
40964;DHT22;26693;51.168;4.138;2022-10-28T04:17:27;18.00;99.90
40964;DHT22;26693;51.168;4.138;2022-10-28T04:18:28;18.00;99.90
40964;DHT22;26693;51.168;4.138;2022-10-28T04:19:28;17.90;99.90
40964;DHT22;26693;51.168;4.138;2022-10-28T04:20:29;17.90;99.90
40964;DHT22;26693;51.168;4.138;2022-10-28T04:21:30;18.00;99.90
40964;DHT22;26693;51.168;4.138;2022-10-28T04:22:30;18.00;99.90
40964;DHT22;26693;51.168;4.138;2022-10-28T04:23:31;17.90;99.90
40964;DHT22;26693;51.168;4.138;2022-10-28T04:24:31;17.90;99.90
40964;DHT22;26693;51.168;4.138;2022-10-28T04:25:32;18.00;99.90
40964;DHT22;26693;51.168;4.138;2022-10-28T04:26:32;17.90;99.90
40964;DHT22;26693;51.168;4.138;2022-10-28T04:27:33;18.00;99.90
40964;DHT22;26693;51.168;4.138;2022-10-28T04:28:33;17.90;99.90
40964;DHT22;26693;51.168;4.138;2022-10-28T04:29:34;18.00;99.90
40964;DHT22;26693;51.168;4.138;2022-10-28T04:30:35;18.00;99.90
40964;DHT22;26693;51.168;4.138;2022-10-28T04:31:36;18.00;99.90
40964;DHT22;26693;51.168;4.138;2022-10-28T04:32:36;18.00;99.90
40964;DHT22;26693;51.168;4.138;2022-10-28T04:33:37;18.00;99.90
40964;DHT22;26693;51.168;4.138;2022-10-28T04:34:37;18.00;99.90
40964;DHT22;26693;51.168;4.138;2022-10-28T04:35:38;17.90;99.90
40964;DHT22;26693;51.168;4.138;2022-10-28T04:36:42;17.90;99.90
40964;DHT22;26693;51.168;4.138;2022-10-28T04:37:42;18.00;99.90
40964;DHT22;26693;51.168;4.138;2022-10-28T04:38:43;17.90;99.90
40964;DHT22;26693;51.168;4.138;2022-10-28T04:39:43;17.90;99.90
40964;DHT22;26693;51.168;4.138;2022-10-28T04:40:46;17.90;99.90
40964;DHT22;26693;51.168;4.138;2022-10-28T04:41:48;17.90;99.90
40964;DHT22;26693;51.168;4.138;2022-10-28T04:42:48;17.90;99.90
40964;DHT22;26693;51.168;4.138;2022-10-28T04:43:49;17.90;99.90
40964;DHT22;26693;51.168;4.138;2022-10-28T04:44:50;17.90;99.90
40964;DHT22;26693;51.168;4.138;2022-10-28T04:45:50;18.00;99.90
40964;DHT22;26693;51.168;4.138;2022-10-28T04:46:51;18.00;99.90
40964;DHT22;26693;51.168;4.138;2022-10-28T04:47:58;17.90;99.90
40964;DHT22;26693;51.168;4.138;2022-10-28T04:48:59;17.90;99.90
40964;DHT22;26693;51.168;4.138;2022-10-28T04:50:00;17.90;99.90
40964;DHT22;26693;51.168;4.138;2022-10-28T04:51:01;17.90;99.90
40964;DHT22;26693;51.168;4.138;2022-10-28T04:52:01;17.80;99.90
40964;DHT22;26693;51.168;4.138;2022-10-28T04:53:02;17.80;99.90
40964;DHT22;26693;51.168;4.138;2022-10-28T04:54:02;17.90;99.90
40964;DHT22;26693;51.168;4.138;2022-10-28T04:55:03;17.90;99.90
40964;DHT22;26693;51.168;4.138;2022-10-28T04:56:04;17.90;99.90
40964;DHT22;26693;51.168;4.138;2022-10-28T04:57:04;17.90;99.90
40964;DHT22;26693;51.168;4.138;2022-10-28T04:58:05;17.80;99.90
40964;DHT22;26693;51.168;4.138;2022-10-28T04:59:06;17.80;99.90
40964;DHT22;26693;51.168;4.138;2022-10-28T05:00:07;17.80;99.90
40964;DHT22;26693;51.168;4.138;2022-10-28T05:01:08;17.70;99.90
40964;DHT22;26693;51.168;4.138;2022-10-28T05:02:09;17.70;99.90
40964;DHT22;26693;51.168;4.138;2022-10-28T05:03:10;17.80;99.90
40964;DHT22;26693;51.168;4.138;2022-10-28T05:04:10;17.70;99.90
40964;DHT22;26693;51.168;4.138;2022-10-28T05:05:11;17.70;99.90
40964;DHT22;26693;51.168;4.138;2022-10-28T05:06:11;17.70;99.90
40964;DHT22;26693;51.168;4.138;2022-10-28T05:07:12;17.70;99.90
40964;DHT22;26693;51.168;4.138;2022-10-28T05:08:12;17.80;99.90
40964;DHT22;26693;51.168;4.138;2022-10-28T05:09:13;17.70;99.90
40964;DHT22;26693;51.168;4.138;2022-10-28T05:10:13;17.70;99.90
40964;DHT22;26693;51.168;4.138;2022-10-28T05:11:17;17.70;99.90
40964;DHT22;26693;51.168;4.138;2022-10-28T05:12:17;17.70;99.90
40964;DHT22;26693;51.168;4.138;2022-10-28T05:13:19;17.80;99.90
40964;DHT22;26693;51.168;4.138;2022-10-28T05:14:19;17.80;99.90
40964;DHT22;26693;51.168;4.138;2022-10-28T05:15:20;17.80;99.90
40964;DHT22;26693;51.168;4.138;2022-10-28T05:16:21;17.80;99.90
40964;DHT22;26693;51.168;4.138;2022-10-28T05:17:21;17.80;99.90
40964;DHT22;26693;51.168;4.138;2022-10-28T05:18:22;17.80;99.90
40964;DHT22;26693;51.168;4.138;2022-10-28T05:19:22;17.70;99.90
40964;DHT22;26693;51.168;4.138;2022-10-28T05:20:23;17.70;99.90
40964;DHT22;26693;51.168;4.138;2022-10-28T05:21:23;17.80;99.90
40964;DHT22;26693;51.168;4.138;2022-10-28T05:22:24;17.70;99.90
40964;DHT22;26693;51.168;4.138;2022-10-28T05:23:24;17.70;99.90
40964;DHT22;26693;51.168;4.138;2022-10-28T05:24:25;17.60;99.90
40964;DHT22;26693;51.168;4.138;2022-10-28T05:25:25;17.70;99.90
40964;DHT22;26693;51.168;4.138;2022-10-28T05:26:26;17.70;99.90
40964;DHT22;26693;51.168;4.138;2022-10-28T05:27:26;17.70;99.90
40964;DHT22;26693;51.168;4.138;2022-10-28T05:28:27;17.70;99.90
40964;DHT22;26693;51.168;4.138;2022-10-28T05:29:27;17.70;99.90
40964;DHT22;26693;51.168;4.138;2022-10-28T05:30:28;17.70;99.90
40964;DHT22;26693;51.168;4.138;2022-10-28T05:31:29;17.70;99.90
40964;DHT22;26693;51.168;4.138;2022-10-28T05:32:29;17.70;99.90
40964;DHT22;26693;51.168;4.138;2022-10-28T05:33:30;17.70;99.90
40964;DHT22;26693;51.168;4.138;2022-10-28T05:34:30;17.70;99.90
40964;DHT22;26693;51.168;4.138;2022-10-28T05:35:31;17.80;99.90
40964;DHT22;26693;51.168;4.138;2022-10-28T05:36:31;17.80;99.90
40964;DHT22;26693;51.168;4.138;2022-10-28T05:37:32;17.80;99.90
40964;DHT22;26693;51.168;4.138;2022-10-28T05:38:33;17.80;99.90
40964;DHT22;26693;51.168;4.138;2022-10-28T05:39:33;17.70;99.90
40964;DHT22;26693;51.168;4.138;2022-10-28T05:40:34;17.70;99.90
40964;DHT22;26693;51.168;4.138;2022-10-28T05:41:34;17.70;99.90
40964;DHT22;26693;51.168;4.138;2022-10-28T05:42:41;17.80;99.90
40964;DHT22;26693;51.168;4.138;2022-10-28T05:43:42;17.70;99.90
40964;DHT22;26693;51.168;4.138;2022-10-28T05:44:42;17.70;99.90
40964;DHT22;26693;51.168;4.138;2022-10-28T05:45:43;17.60;99.90
40964;DHT22;26693;51.168;4.138;2022-10-28T05:46:46;17.60;99.90
40964;DHT22;26693;51.168;4.138;2022-10-28T05:47:47;17.70;99.90
40964;DHT22;26693;51.168;4.138;2022-10-28T05:48:48;17.70;99.90
40964;DHT22;26693;51.168;4.138;2022-10-28T05:49:49;17.70;99.90
40964;DHT22;26693;51.168;4.138;2022-10-28T05:50:49;17.70;99.90
40964;DHT22;26693;51.168;4.138;2022-10-28T05:51:50;17.70;99.90
40964;DHT22;26693;51.168;4.138;2022-10-28T05:52:52;17.70;99.90
40964;DHT22;26693;51.168;4.138;2022-10-28T05:53:53;17.70;99.90
40964;DHT22;26693;51.168;4.138;2022-10-28T05:54:53;17.60;99.90
40964;DHT22;26693;51.168;4.138;2022-10-28T05:55:54;17.60;99.90
40964;DHT22;26693;51.168;4.138;2022-10-28T05:56:54;17.60;99.90
40964;DHT22;26693;51.168;4.138;2022-10-28T05:57:56;17.60;99.90
40964;DHT22;26693;51.168;4.138;2022-10-28T05:58:57;17.60;99.90
40964;DHT22;26693;51.168;4.138;2022-10-28T05:59:58;17.60;99.90
40964;DHT22;26693;51.168;4.138;2022-10-28T06:01:17;17.60;99.90
40964;DHT22;26693;51.168;4.138;2022-10-28T06:02:32;17.60;99.90
40964;DHT22;26693;51.168;4.138;2022-10-28T06:03:34;17.60;99.90
40964;DHT22;26693;51.168;4.138;2022-10-28T06:04:35;17.60;99.90
40964;DHT22;26693;51.168;4.138;2022-10-28T06:05:37;17.60;99.90
40964;DHT22;26693;51.168;4.138;2022-10-28T06:06:47;17.60;99.90
40964;DHT22;26693;51.168;4.138;2022-10-28T06:07:49;17.60;99.90
40964;DHT22;26693;51.168;4.138;2022-10-28T06:08:50;17.60;99.90
40964;DHT22;26693;51.168;4.138;2022-10-28T06:11:50;17.70;99.90
40964;DHT22;26693;51.168;4.138;2022-10-28T06:12:53;17.70;99.90
40964;DHT22;26693;51.168;4.138;2022-10-28T06:13:57;17.70;99.90
40964;DHT22;26693;51.168;4.138;2022-10-28T06:15:08;17.70;99.90
40964;DHT22;26693;51.168;4.138;2022-10-28T06:16:12;17.70;99.90
40964;DHT22;26693;51.168;4.138;2022-10-28T06:17:17;17.70;99.90
40964;DHT22;26693;51.168;4.138;2022-10-28T06:18:22;17.70;99.90
40964;DHT22;26693;51.168;4.138;2022-10-28T06:19:32;17.70;99.90
40964;DHT22;26693;51.168;4.138;2022-10-28T06:20:39;17.70;99.90
40964;DHT22;26693;51.168;4.138;2022-10-28T06:21:40;17.80;99.90
40964;DHT22;26693;51.168;4.138;2022-10-28T06:22:52;17.80;99.90
40964;DHT22;26693;51.168;4.138;2022-10-28T06:23:53;17.80;99.90
40964;DHT22;26693;51.168;4.138;2022-10-28T06:24:54;17.90;99.90
40964;DHT22;26693;51.168;4.138;2022-10-28T06:25:59;17.90;99.90
40964;DHT22;26693;51.168;4.138;2022-10-28T06:27:00;18.00;99.90
40964;DHT22;26693;51.168;4.138;2022-10-28T06:28:01;18.10;99.90
40964;DHT22;26693;51.168;4.138;2022-10-28T06:29:04;18.10;99.90
40964;DHT22;26693;51.168;4.138;2022-10-28T06:30:06;18.10;99.90
40964;DHT22;26693;51.168;4.138;2022-10-28T06:31:08;18.10;99.90
40964;DHT22;26693;51.168;4.138;2022-10-28T06:32:09;18.00;99.90
40964;DHT22;26693;51.168;4.138;2022-10-28T06:33:10;18.00;99.90
40964;DHT22;26693;51.168;4.138;2022-10-28T06:34:11;17.90;99.90
40964;DHT22;26693;51.168;4.138;2022-10-28T06:35:12;17.80;99.90
40964;DHT22;26693;51.168;4.138;2022-10-28T06:36:12;17.80;99.90
40964;DHT22;26693;51.168;4.138;2022-10-28T06:37:13;17.80;99.90
40964;DHT22;26693;51.168;4.138;2022-10-28T06:38:13;17.80;99.90
40964;DHT22;26693;51.168;4.138;2022-10-28T06:39:14;17.70;99.90
40964;DHT22;26693;51.168;4.138;2022-10-28T06:40:14;17.70;99.90
40964;DHT22;26693;51.168;4.138;2022-10-28T06:41:15;17.70;99.90
40964;DHT22;26693;51.168;4.138;2022-10-28T06:42:16;17.80;99.90
40964;DHT22;26693;51.168;4.138;2022-10-28T06:43:16;17.80;99.90
40964;DHT22;26693;51.168;4.138;2022-10-28T06:44:17;17.80;99.90
40964;DHT22;26693;51.168;4.138;2022-10-28T06:45:18;17.80;99.90
40964;DHT22;26693;51.168;4.138;2022-10-28T06:46:19;17.80;99.90
40964;DHT22;26693;51.168;4.138;2022-10-28T06:47:19;17.70;99.90
40964;DHT22;26693;51.168;4.138;2022-10-28T06:48:20;17.80;99.90
40964;DHT22;26693;51.168;4.138;2022-10-28T06:49:20;17.80;99.90
40964;DHT22;26693;51.168;4.138;2022-10-28T06:50:21;17.80;99.90
40964;DHT22;26693;51.168;4.138;2022-10-28T06:51:22;17.70;99.90
40964;DHT22;26693;51.168;4.138;2022-10-28T06:52:23;17.70;99.90
40964;DHT22;26693;51.168;4.138;2022-10-28T06:53:24;17.70;99.90
40964;DHT22;26693;51.168;4.138;2022-10-28T06:54:25;17.70;99.90
40964;DHT22;26693;51.168;4.138;2022-10-28T06:55:26;17.70;99.90
40964;DHT22;26693;51.168;4.138;2022-10-28T06:56:27;17.70;99.90
40964;DHT22;26693;51.168;4.138;2022-10-28T06:57:27;17.70;99.90
40964;DHT22;26693;51.168;4.138;2022-10-28T06:58:28;17.70;99.90
40964;DHT22;26693;51.168;4.138;2022-10-28T06:59:28;17.80;99.90
40964;DHT22;26693;51.168;4.138;2022-10-28T07:00:30;17.70;99.90
40964;DHT22;26693;51.168;4.138;2022-10-28T07:01:32;17.80;99.90
40964;DHT22;26693;51.168;4.138;2022-10-28T07:02:33;17.80;99.90
40964;DHT22;26693;51.168;4.138;2022-10-28T07:03:33;17.80;99.90
40964;DHT22;26693;51.168;4.138;2022-10-28T07:04:34;17.90;99.90
40964;DHT22;26693;51.168;4.138;2022-10-28T07:05:34;17.90;99.90
40964;DHT22;26693;51.168;4.138;2022-10-28T07:06:35;17.90;99.90
40964;DHT22;26693;51.168;4.138;2022-10-28T07:07:35;17.90;99.90